Latest Weather Observations for Mount Hotham

IDV60801

Issued at 6:32 am EDT Friday 24 March 2017 (issued every 30 minutes, with the page automatically refreshed every 10 minutes)

About weather observations | Map of weather stations | Latest weather observations for VIC | Other Formats
Station Details ID: 083085 Name: MOUNT HOTHAM Lat: -36.98 Lon: 147.13 Height: 1849.0 m
Data from the previous 72 hours. | See also: Recent months at Mount Hotham
Date/Time
EDT
Temp
°C
App
Temp
°C
Dew
Point
°C
Rel
Hum
%
Delta-T
°C
Wind Press
QNH
hPa
Press
MSL
hPa
Rain since
9am
mm
Dir  Spd
km/h
Gust
km/h
Spd
kts
Gust
kts
24/06:30am 6.4 - - - - ENE 19 22 10 12 - - 1.2
24/06:00am 6.2 - - - - E 22 24 12 13 - - 1.2
24/05:30am 5.7 - - - - E 20 26 11 14 - - 0.8
24/05:00am 5.4 - - - - E 19 26 10 14 - - 0.8
24/04:30am 5.6 - - - - E 20 26 11 14 - - 0.8
24/04:00am 5.7 - - - - ESE 22 30 12 16 - - 0.8
24/03:30am 5.8 - - - - ESE 24 30 13 16 - - 0.8
24/03:00am 6.1 - - - - ESE 20 26 11 14 - - 0.8
24/02:30am 6.2 - - - - ESE 22 28 12 15 - - 0.6
24/02:00am 6.5 - - - - E 19 22 10 12 - - 0.4
24/01:30am 6.5 - - - - ESE 24 32 13 17 - - 0.4
24/01:00am 6.6 - - - - ESE 28 35 15 19 - - 0.4
24/12:30am 6.7 - - - - ESE 30 39 16 21 - - 0.2
24/12:00am 6.7 - - - - ESE 32 41 17 22 - - 0.2
 
Date/Time
EDT
Temp
°C
App
Temp
°C
Dew
Point
°C
Rel
Hum
%
Delta-T
°C
Wind Press
QNH
hPa
Press
MSL
hPa
Rain since
9am
mm
Dir  Spd
km/h
Gust
km/h
Spd
kts
Gust
kts
23/11:30pm 6.8 - - - - ESE 30 43 16 23 - - 0.2
23/11:00pm 6.8 - - - - SE 32 39 17 21 - - 0.2
23/10:30pm 6.9 - - - - ESE 32 43 17 23 - - 0.2
23/10:00pm 7.1 - - - - SE 32 48 17 26 - - 0.2
23/09:30pm 6.9 - - - - SE 33 46 18 25 - - 0.0
23/09:00pm 6.9 - - - - SE 32 39 17 21 - - 0.0
23/08:30pm 7.2 - - - - SE 30 41 16 22 - - 0.0
23/08:00pm 7.1 - - - - ESE 26 35 14 19 - - 0.0
23/07:30pm 7.3 - - - - SE 28 37 15 20 - - 0.0
23/07:00pm 7.6 - - - - SE 26 39 14 21 - - 0.0
23/06:30pm 7.7 - - - - SE 30 39 16 21 - - 0.0
23/06:00pm 8.2 - - - - SE 26 35 14 19 - - 0.0
23/05:30pm 8.1 - - - - SE 24 30 13 16 - - 0.0
23/05:00pm 8.2 - - - - SE 26 37 14 20 - - 0.0
23/04:30pm 8.4 - - - - SE 26 35 14 19 - - 0.0
23/04:00pm 8.5 - - - - SE 30 35 16 19 - - 0.0
23/03:30pm 8.3 - - - - ESE 22 30 12 16 - - 0.0
23/03:00pm 7.7 - - - - ESE 24 30 13 16 - - 0.0
23/02:30pm 7.4 - - - - ESE 24 32 13 17 - - 0.0
23/02:00pm 7.3 - - - - ESE 24 32 13 17 - - 0.0
23/01:30pm 7.3 - - - - ESE 24 32 13 17 - - 0.0
23/01:00pm 7.3 - - - - ESE 24 28 13 15 - - 0.0
23/12:30pm 7.8 - - - - SE 26 32 14 17 - - 0.0
23/12:00pm 7.8 - - - - SE 28 32 15 17 - - 0.0
23/11:30am 8.0 - - - - ESE 22 30 12 16 - - 0.0
23/11:00am 7.4 - - - - SE 22 30 12 16 - - 0.0
23/10:30am 6.9 - - - - ESE 24 32 13 17 - - 0.0
23/10:00am 6.9 - - - - ESE 24 32 13 17 - - 0.0
23/09:30am 6.5 - - - - ESE 22 30 12 16 - - 0.0
23/09:00am 6.5 - - - - ESE 20 26 11 14 - - 2.4
23/08:30am 6.6 - - - - ESE 22 30 12 16 - - 2.4
23/08:00am 6.4 - - - - ESE 24 33 13 18 - - 2.4
23/07:30am 6.4 - - - - ESE 22 30 12 16 - - 2.4
23/07:00am 6.4 - - - - ESE 24 35 13 19 - - 2.4
23/06:30am 6.5 - - - - ESE 24 30 13 16 - - 2.2
23/06:00am 6.7 - - - - ESE 20 28 11 15 - - 2.2
23/05:30am 6.6 - - - - ESE 20 28 11 15 - - 2.2
23/05:00am 6.7 - - - - ESE 22 28 12 15 - - 2.2
23/04:30am 6.7 - - - - ESE 22 32 12 17 - - 2.2
23/04:00am 6.7 - - - - ESE 20 30 11 16 - - 2.0
23/03:30am 6.7 - - - - ESE 22 30 12 16 - - 2.0
23/03:00am 6.7 - - - - ESE 22 33 12 18 - - 2.0
23/02:30am 6.8 - - - - ESE 22 32 12 17 - - 2.0
23/02:00am 6.9 - - - - ESE 24 30 13 16 - - 1.8
23/01:30am 6.9 - - - - ESE 26 33 14 18 - - 1.8
23/01:00am 6.9 - - - - ESE 28 41 15 22 - - 1.8
23/12:30am 6.9 - - - - ESE 26 35 14 19 - - 1.8
23/12:00am 6.9 - - - - SE 32 39 17 21 - - 1.8
 
Date/Time
EDT
Temp
°C
App
Temp
°C
Dew
Point
°C
Rel
Hum
%
Delta-T
°C
Wind Press
QNH
hPa
Press
MSL
hPa
Rain since
9am
mm
Dir  Spd
km/h
Gust
km/h
Spd
kts
Gust
kts
22/11:30pm 7.0 - - - - SE 32 44 17 24 - - 1.8
22/11:00pm 7.2 - - - - SE 32 43 17 23 - - 1.6
22/10:30pm 7.2 - - - - SE 37 50 20 27 - - 1.6
22/10:00pm 7.3 - - - - SE 39 48 21 26 - - 1.6
22/09:30pm 7.5 - - - - SE 41 48 22 26 - - 1.4
22/09:00pm 7.6 - - - - SE 41 54 22 29 - - 1.4
22/08:30pm 7.8 - - - - SE 37 48 20 26 - - 1.2
22/08:00pm 8.0 - - - - SSE 41 50 22 27 - - 1.2
22/07:30pm 8.3 - - - - SSE 39 48 21 26 - - 1.0
22/07:00pm 8.9 - - - - SSE 32 39 17 21 - - 1.0
22/06:30pm 9.0 - - - - SSE 35 44 19 24 - - 0.8
22/06:00pm 9.6 - - - - SSE 30 41 16 22 - - 0.8
22/05:30pm 10.2 - - - - SSE 24 33 13 18 - - 0.6
22/05:00pm 10.5 - - - - S 30 39 16 21 - - 0.6
22/04:30pm 10.3 - - - - S 24 33 13 18 - - 0.6
22/04:00pm 10.5 - - - - SSE 26 33 14 18 - - 0.6
22/03:30pm 10.2 - - - - SSE 26 35 14 19 - - 0.4
22/03:00pm 10.6 - - - - S 19 24 10 13 - - 0.4
22/02:30pm 10.7 - - - - S 20 26 11 14 - - 0.4
22/02:00pm 10.8 - - - - S 22 26 12 14 - - 0.4
22/01:30pm 11.3 - - - - S 20 26 11 14 - - 0.2
22/01:00pm 12.8 - - - - S 19 22 10 12 - - 0.2
22/12:30pm 11.8 - - - - WSW 17 22 9 12 - - 0.2
22/12:00pm 11.7 - - - - WSW 11 17 6 9 - - 0.2
22/11:30am 11.7 - - - - SW 19 28 10 15 - - 0.2
22/11:00am 11.2 - - - - WSW 22 30 12 16 - - 0.2
22/10:30am 11.2 - - - - WSW 19 24 10 13 - - 0.2
22/10:00am 11.1 - - - - WSW 11 17 6 9 - - 0.2
22/09:30am 11.2 - - - - WSW 22 32 12 17 - - 0.2
22/09:00am 11.2 - - - - NW 22 30 12 16 - - 32.8
22/08:30am 11.1 - - - - WNW 22 30 12 16 - - 32.8
22/08:00am 11.1 - - - - NW 22 33 12 18 - - 32.8
22/07:30am 11.2 - - - - NW 26 37 14 20 - - 32.8
22/07:00am 11.2 - - - - NW 26 41 14 22 - - 32.8
22/06:34am 11.1 - - - - NW 28 46 15 25 - - 32.8
22/06:30am 11.1 - - - - NW 28 46 15 25 - - 32.8
22/06:00am 11.0 - - - - N 26 37 14 20 - - 32.8
22/05:30am 10.8 - - - - N 26 44 14 24 - - 32.6
22/05:00am 11.2 - - - - N 30 44 16 24 - - 32.6
22/04:30am 11.1 - - - - N 30 37 16 20 - - 32.6
22/04:00am 11.2 - - - - N 26 41 14 22 - - 32.6
22/03:30am 11.0 - - - - N 24 30 13 16 - - 32.4
22/03:00am 11.0 - - - - NNW 26 37 14 20 - - 32.4
22/02:30am 11.2 - - - - N 24 32 13 17 - - 32.4
22/02:00am 11.5 - - - - N 28 39 15 21 - - 32.4
22/01:30am 11.6 - - - - N 28 35 15 19 - - 32.4
22/01:00am 11.8 - - - - NNW 24 33 13 18 - - 32.2
22/12:30am 11.9 - - - - N 24 32 13 17 - - 32.2
22/12:00am 12.3 - - - - N 20 28 11 15 - - 32.0
 
Date/Time
EDT
Temp
°C
App
Temp
°C
Dew
Point
°C
Rel
Hum
%
Delta-T
°C
Wind Press
QNH
hPa
Press
MSL
hPa
Rain since
9am
mm
Dir  Spd
km/h
Gust
km/h
Spd
kts
Gust
kts
21/11:30pm 12.2 - - - - N 26 35 14 19 - - 32.0
21/11:00pm 12.1 - - - - N 22 32 12 17 - - 31.8
21/10:30pm 12.0 - - - - N 17 22 9 12 - - 31.8
21/10:00pm 12.1 - - - - NNW 22 30 12 16 - - 31.8
21/09:30pm 12.2 - - - - N 17 24 9 13 - - 30.2
21/09:00pm 12.2 - - - - N 19 22 10 12 - - 24.8
21/08:30pm 12.2 - - - - N 20 24 11 13 - - 23.2
21/08:00pm 12.0 - - - - N 26 32 14 17 - - 23.2
21/07:30pm 11.9 - - - - NNE 32 39 17 21 - - 23.2
21/07:00pm 11.9 - - - - NNE 32 37 17 20 - - 23.2
21/06:30pm 12.0 - - - - NNE 33 39 18 21 - - 23.2
21/06:00pm 12.2 - - - - NNE 26 33 14 18 - - 23.2
21/05:30pm 12.1 - - - - NNE 24 30 13 16 - - 23.2
21/05:00pm 12.2 - - - - NNE 26 32 14 17 - - 23.2
21/04:30pm 12.2 - - - - NNE 30 39 16 21 - - 23.2
21/04:00pm 12.4 - - - - NNE 39 44 21 24 - - 23.2
21/03:30pm 12.1 - - - - NNE 39 44 21 24 - - 23.2
21/03:00pm 12.4 - - - - NNE 37 46 20 25 - - 23.2
21/02:30pm 12.4 - - - - NNE 37 43 20 23 - - 23.2
21/02:00pm 12.1 - - - - NNE 37 46 20 25 - - 23.2
21/01:30pm 11.6 - - - - NNE 35 43 19 23 - - 23.0
21/01:00pm 11.6 - - - - NNE 30 35 16 19 - - 23.0
21/12:30pm 11.7 - - - - N 28 35 15 19 - - 22.6
21/12:00pm 11.7 - - - - NNE 28 39 15 21 - - 19.6
21/11:30am 12.1 - - - - NNE 20 24 11 13 - - 17.6
21/11:00am 12.2 - - - - NNE 20 24 11 13 - - 17.6
21/10:30am 11.8 - - - - NNE 20 24 11 13 - - 16.4
21/10:00am 11.9 - - - - NNE 13 17 7 9 - - 14.4
21/09:30am 11.7 - - - - N 9 11 5 6 - - 5.0
21/09:00am 11.8 - - - - N 19 22 10 12 - - 27.2
21/08:30am 13.0 - - - - N 19 24 10 13 - - 22.8
21/08:00am 12.4 - - - - N 19 22 10 12 - - 22.8
21/07:30am 11.7 - - - - NNE 26 30 14 16 - - 22.8
21/07:00am 11.7 - - - - N 24 28 13 15 - - 22.8

Other Formats:

Comma delimited format used in spreadsheet applications
http://www.bom.gov.au/fwo/IDV60801/IDV60801.94906.axf

JavaScript Object Notation format (JSON) in row-major order
http://www.bom.gov.au/fwo/IDV60801/IDV60801.94906.json